sensor_id;sensor_type;location;lat;lon;timestamp;temperature;humidity
43810;DHT22;29440;48.208;11.162;2023-03-31T00:00:43;7.80;99.90
43810;DHT22;29440;48.208;11.162;2023-03-31T00:03:08;7.80;99.90
43810;DHT22;29440;48.208;11.162;2023-03-31T00:05:38;7.80;99.90
43810;DHT22;29440;48.208;11.162;2023-03-31T00:08:04;7.80;99.90
43810;DHT22;29440;48.208;11.162;2023-03-31T00:10:31;7.80;99.90
43810;DHT22;29440;48.208;11.162;2023-03-31T00:12:58;7.80;99.90
43810;DHT22;29440;48.208;11.162;2023-03-31T00:15:24;7.80;99.90
43810;DHT22;29440;48.208;11.162;2023-03-31T00:17:50;7.80;99.90
43810;DHT22;29440;48.208;11.162;2023-03-31T00:20:16;7.90;99.90
43810;DHT22;29440;48.208;11.162;2023-03-31T00:22:41;7.90;99.90
43810;DHT22;29440;48.208;11.162;2023-03-31T00:25:12;7.90;99.90
43810;DHT22;29440;48.208;11.162;2023-03-31T00:27:43;8.00;99.90
43810;DHT22;29440;48.208;11.162;2023-03-31T00:30:11;8.00;99.90
43810;DHT22;29440;48.208;11.162;2023-03-31T00:32:37;8.00;99.90
43810;DHT22;29440;48.208;11.162;2023-03-31T00:35:03;8.00;99.90
43810;DHT22;29440;48.208;11.162;2023-03-31T00:37:29;8.00;99.90
43810;DHT22;29440;48.208;11.162;2023-03-31T00:39:55;8.00;99.90
43810;DHT22;29440;48.208;11.162;2023-03-31T00:42:21;8.00;99.90
43810;DHT22;29440;48.208;11.162;2023-03-31T00:47:42;8.10;99.90
43810;DHT22;29440;48.208;11.162;2023-03-31T00:50:33;8.10;99.90
43810;DHT22;29440;48.208;11.162;2023-03-31T00:53:05;8.10;99.90
43810;DHT22;29440;48.208;11.162;2023-03-31T00:55:39;8.10;99.90
43810;DHT22;29440;48.208;11.162;2023-03-31T00:58:07;8.10;99.90
43810;DHT22;29440;48.208;11.162;2023-03-31T01:00:33;8.10;99.90
43810;DHT22;29440;48.208;11.162;2023-03-31T01:03:02;8.10;99.90
43810;DHT22;29440;48.208;11.162;2023-03-31T01:05:52;8.20;99.90
43810;DHT22;29440;48.208;11.162;2023-03-31T01:08:22;8.20;99.90
43810;DHT22;29440;48.208;11.162;2023-03-31T01:10:59;8.20;99.90
43810;DHT22;29440;48.208;11.162;2023-03-31T01:13:26;8.20;99.90
43810;DHT22;29440;48.208;11.162;2023-03-31T01:15:53;8.20;99.90
43810;DHT22;29440;48.208;11.162;2023-03-31T01:18:19;8.20;99.90
43810;DHT22;29440;48.208;11.162;2023-03-31T01:27:27;8.20;99.90
43810;DHT22;29440;48.208;11.162;2023-03-31T01:30:31;8.20;99.90
43810;DHT22;29440;48.208;11.162;2023-03-31T01:39:20;8.20;99.90
43810;DHT22;29440;48.208;11.162;2023-03-31T01:41:55;8.20;99.90
43810;DHT22;29440;48.208;11.162;2023-03-31T01:44:42;8.20;99.90
43810;DHT22;29440;48.208;11.162;2023-03-31T01:47:18;8.20;99.90
43810;DHT22;29440;48.208;11.162;2023-03-31T01:52:26;8.20;99.90
43810;DHT22;29440;48.208;11.162;2023-03-31T01:55:01;8.20;99.90
43810;DHT22;29440;48.208;11.162;2023-03-31T01:57:36;8.20;99.90
43810;DHT22;29440;48.208;11.162;2023-03-31T02:00:05;8.20;99.90
43810;DHT22;29440;48.208;11.162;2023-03-31T02:02:47;8.20;99.90
43810;DHT22;29440;48.208;11.162;2023-03-31T02:05:23;8.20;99.90
43810;DHT22;29440;48.208;11.162;2023-03-31T02:08:07;8.20;99.90
43810;DHT22;29440;48.208;11.162;2023-03-31T02:10:34;8.20;99.90
43810;DHT22;29440;48.208;11.162;2023-03-31T02:13:01;8.30;99.90
43810;DHT22;29440;48.208;11.162;2023-03-31T02:15:29;8.20;99.90
43810;DHT22;29440;48.208;11.162;2023-03-31T02:17:58;8.30;99.90
43810;DHT22;29440;48.208;11.162;2023-03-31T02:20:27;8.30;99.90
43810;DHT22;29440;48.208;11.162;2023-03-31T02:22:55;8.30;99.90
43810;DHT22;29440;48.208;11.162;2023-03-31T02:25:24;8.30;99.90
43810;DHT22;29440;48.208;11.162;2023-03-31T02:27:57;8.40;99.90
43810;DHT22;29440;48.208;11.162;2023-03-31T02:30:52;8.40;99.90
43810;DHT22;29440;48.208;11.162;2023-03-31T02:33:14;8.30;99.90
43810;DHT22;29440;48.208;11.162;2023-03-31T02:35:41;8.40;99.90
43810;DHT22;29440;48.208;11.162;2023-03-31T02:38:06;8.40;99.90
43810;DHT22;29440;48.208;11.162;2023-03-31T02:40:33;8.40;99.90
43810;DHT22;29440;48.208;11.162;2023-03-31T02:42:59;8.40;99.90
43810;DHT22;29440;48.208;11.162;2023-03-31T02:45:44;8.40;99.90
43810;DHT22;29440;48.208;11.162;2023-03-31T02:48:14;8.40;99.90
43810;DHT22;29440;48.208;11.162;2023-03-31T02:51:09;8.50;99.90
43810;DHT22;29440;48.208;11.162;2023-03-31T02:57:16;8.50;99.90
43810;DHT22;29440;48.208;11.162;2023-03-31T03:00:02;8.50;99.90
43810;DHT22;29440;48.208;11.162;2023-03-31T03:05:24;8.70;99.90
43810;DHT22;29440;48.208;11.162;2023-03-31T03:08:05;8.80;99.90
43810;DHT22;29440;48.208;11.162;2023-03-31T03:10:57;8.80;99.90
43810;DHT22;29440;48.208;11.162;2023-03-31T03:14:04;8.90;99.90
43810;DHT22;29440;48.208;11.162;2023-03-31T03:16:56;8.90;99.90
43810;DHT22;29440;48.208;11.162;2023-03-31T03:19:23;8.90;99.90
43810;DHT22;29440;48.208;11.162;2023-03-31T03:21:49;9.00;99.90
43810;DHT22;29440;48.208;11.162;2023-03-31T03:24:15;9.10;99.90
43810;DHT22;29440;48.208;11.162;2023-03-31T03:26:42;9.10;99.90
43810;DHT22;29440;48.208;11.162;2023-03-31T03:29:09;9.10;99.90
43810;DHT22;29440;48.208;11.162;2023-03-31T03:31:37;9.10;99.90
43810;DHT22;29440;48.208;11.162;2023-03-31T03:34:03;9.10;99.90
43810;DHT22;29440;48.208;11.162;2023-03-31T03:36:29;9.20;99.90
43810;DHT22;29440;48.208;11.162;2023-03-31T03:38:55;9.20;99.90
43810;DHT22;29440;48.208;11.162;2023-03-31T03:41:20;9.20;99.90
43810;DHT22;29440;48.208;11.162;2023-03-31T03:43:46;9.20;99.90
43810;DHT22;29440;48.208;11.162;2023-03-31T03:46:11;9.30;99.90
43810;DHT22;29440;48.208;11.162;2023-03-31T03:48:37;9.30;99.90
43810;DHT22;29440;48.208;11.162;2023-03-31T03:51:03;9.30;99.90
43810;DHT22;29440;48.208;11.162;2023-03-31T03:53:29;9.30;99.90
43810;DHT22;29440;48.208;11.162;2023-03-31T03:55:54;9.40;99.90
43810;DHT22;29440;48.208;11.162;2023-03-31T03:58:20;9.30;99.90
43810;DHT22;29440;48.208;11.162;2023-03-31T04:00:46;9.30;99.90
43810;DHT22;29440;48.208;11.162;2023-03-31T04:03:12;9.30;99.90
43810;DHT22;29440;48.208;11.162;2023-03-31T04:05:38;9.20;99.90
43810;DHT22;29440;48.208;11.162;2023-03-31T04:08:04;9.20;99.90
43810;DHT22;29440;48.208;11.162;2023-03-31T04:10:30;9.30;99.90
43810;DHT22;29440;48.208;11.162;2023-03-31T04:12:56;9.20;99.90
43810;DHT22;29440;48.208;11.162;2023-03-31T04:15:21;9.20;99.90
43810;DHT22;29440;48.208;11.162;2023-03-31T04:17:47;9.20;99.90
43810;DHT22;29440;48.208;11.162;2023-03-31T04:20:15;9.20;99.90
43810;DHT22;29440;48.208;11.162;2023-03-31T04:22:41;9.20;99.90
43810;DHT22;29440;48.208;11.162;2023-03-31T04:25:10;9.20;99.90
43810;DHT22;29440;48.208;11.162;2023-03-31T04:27:46;9.20;99.90
43810;DHT22;29440;48.208;11.162;2023-03-31T04:30:15;9.30;99.90
43810;DHT22;29440;48.208;11.162;2023-03-31T04:32:55;9.20;99.90
43810;DHT22;29440;48.208;11.162;2023-03-31T04:35:23;9.20;99.90
43810;DHT22;29440;48.208;11.162;2023-03-31T04:37:51;9.10;99.90
43810;DHT22;29440;48.208;11.162;2023-03-31T04:40:23;9.10;99.90
43810;DHT22;29440;48.208;11.162;2023-03-31T04:42:49;9.00;99.90
43810;DHT22;29440;48.208;11.162;2023-03-31T04:45:16;9.00;99.90
43810;DHT22;29440;48.208;11.162;2023-03-31T04:47:42;8.90;99.90
43810;DHT22;29440;48.208;11.162;2023-03-31T04:50:09;8.90;99.90
43810;DHT22;29440;48.208;11.162;2023-03-31T04:52:37;8.90;99.90
43810;DHT22;29440;48.208;11.162;2023-03-31T04:55:04;8.90;99.90
43810;DHT22;29440;48.208;11.162;2023-03-31T04:57:30;8.90;99.90
43810;DHT22;29440;48.208;11.162;2023-03-31T04:59:56;8.90;99.90
43810;DHT22;29440;48.208;11.162;2023-03-31T05:02:21;8.80;99.90
43810;DHT22;29440;48.208;11.162;2023-03-31T05:04:50;8.80;99.90
43810;DHT22;29440;48.208;11.162;2023-03-31T05:07:19;8.70;99.90
43810;DHT22;29440;48.208;11.162;2023-03-31T05:09:45;8.80;99.90
43810;DHT22;29440;48.208;11.162;2023-03-31T05:12:11;8.80;99.90
43810;DHT22;29440;48.208;11.162;2023-03-31T05:14:37;8.80;99.90
43810;DHT22;29440;48.208;11.162;2023-03-31T05:17:02;8.80;99.90
43810;DHT22;29440;48.208;11.162;2023-03-31T05:19:28;8.80;99.90
43810;DHT22;29440;48.208;11.162;2023-03-31T05:21:53;8.80;99.90
43810;DHT22;29440;48.208;11.162;2023-03-31T05:24:19;8.80;99.90
43810;DHT22;29440;48.208;11.162;2023-03-31T05:26:45;8.80;99.90
43810;DHT22;29440;48.208;11.162;2023-03-31T05:29:19;8.80;99.90
43810;DHT22;29440;48.208;11.162;2023-03-31T05:31:45;8.80;99.90
43810;DHT22;29440;48.208;11.162;2023-03-31T05:34:12;8.80;99.90
43810;DHT22;29440;48.208;11.162;2023-03-31T05:36:37;8.90;99.90
43810;DHT22;29440;48.208;11.162;2023-03-31T05:39:06;8.80;99.90
43810;DHT22;29440;48.208;11.162;2023-03-31T05:41:33;8.80;99.90
43810;DHT22;29440;48.208;11.162;2023-03-31T05:43:58;8.90;99.90
43810;DHT22;29440;48.208;11.162;2023-03-31T05:46:25;8.80;99.90
43810;DHT22;29440;48.208;11.162;2023-03-31T05:48:51;8.80;99.90
43810;DHT22;29440;48.208;11.162;2023-03-31T05:51:17;8.80;99.90
43810;DHT22;29440;48.208;11.162;2023-03-31T05:53:43;8.80;99.90
43810;DHT22;29440;48.208;11.162;2023-03-31T05:56:09;8.80;99.90
43810;DHT22;29440;48.208;11.162;2023-03-31T05:58:36;8.80;99.90
43810;DHT22;29440;48.208;11.162;2023-03-31T06:01:10;8.80;99.90
43810;DHT22;29440;48.208;11.162;2023-03-31T06:03:39;8.80;99.90
43810;DHT22;29440;48.208;11.162;2023-03-31T06:06:08;8.90;99.90
43810;DHT22;29440;48.208;11.162;2023-03-31T06:08:34;8.80;99.90
43810;DHT22;29440;48.208;11.162;2023-03-31T06:11:07;8.80;99.90
43810;DHT22;29440;48.208;11.162;2023-03-31T06:13:34;8.80;99.90
43810;DHT22;29440;48.208;11.162;2023-03-31T06:16:00;8.80;99.90
43810;DHT22;29440;48.208;11.162;2023-03-31T06:18:28;8.80;99.90
43810;DHT22;29440;48.208;11.162;2023-03-31T06:20:54;8.90;99.90
43810;DHT22;29440;48.208;11.162;2023-03-31T06:23:20;8.90;99.90
43810;DHT22;29440;48.208;11.162;2023-03-31T06:25:47;8.90;99.90
43810;DHT22;29440;48.208;11.162;2023-03-31T06:28:12;8.90;99.90
43810;DHT22;29440;48.208;11.162;2023-03-31T06:30:38;8.90;99.90
43810;DHT22;29440;48.208;11.162;2023-03-31T06:33:04;9.00;99.90
43810;DHT22;29440;48.208;11.162;2023-03-31T06:35:30;9.10;99.90
43810;DHT22;29440;48.208;11.162;2023-03-31T06:37:58;9.00;99.90
43810;DHT22;29440;48.208;11.162;2023-03-31T06:40:24;9.00;99.90
43810;DHT22;29440;48.208;11.162;2023-03-31T06:42:50;9.10;99.90
43810;DHT22;29440;48.208;11.162;2023-03-31T06:45:16;9.10;99.90
43810;DHT22;29440;48.208;11.162;2023-03-31T06:47:41;9.10;99.90
43810;DHT22;29440;48.208;11.162;2023-03-31T06:50:09;9.10;99.90
43810;DHT22;29440;48.208;11.162;2023-03-31T06:52:35;9.10;99.90
43810;DHT22;29440;48.208;11.162;2023-03-31T06:55:01;9.10;99.90
43810;DHT22;29440;48.208;11.162;2023-03-31T06:57:28;9.20;99.90
43810;DHT22;29440;48.208;11.162;2023-03-31T06:59:54;9.10;99.90
43810;DHT22;29440;48.208;11.162;2023-03-31T07:02:20;9.10;99.90
43810;DHT22;29440;48.208;11.162;2023-03-31T07:04:45;9.10;99.90
43810;DHT22;29440;48.208;11.162;2023-03-31T07:07:11;9.10;99.90
43810;DHT22;29440;48.208;11.162;2023-03-31T07:09:37;9.10;99.90
43810;DHT22;29440;48.208;11.162;2023-03-31T07:12:04;9.10;99.90
43810;DHT22;29440;48.208;11.162;2023-03-31T07:14:30;9.10;99.90
43810;DHT22;29440;48.208;11.162;2023-03-31T07:16:56;9.10;99.90
43810;DHT22;29440;48.208;11.162;2023-03-31T07:19:22;9.10;99.90
43810;DHT22;29440;48.208;11.162;2023-03-31T07:21:48;9.20;99.90
43810;DHT22;29440;48.208;11.162;2023-03-31T07:24:14;9.10;99.90
43810;DHT22;29440;48.208;11.162;2023-03-31T07:26:41;9.20;99.90
43810;DHT22;29440;48.208;11.162;2023-03-31T07:29:07;9.30;99.90
43810;DHT22;29440;48.208;11.162;2023-03-31T07:31:33;9.20;99.90
43810;DHT22;29440;48.208;11.162;2023-03-31T07:34:00;9.20;99.90
43810;DHT22;29440;48.208;11.162;2023-03-31T07:36:26;9.20;99.90
43810;DHT22;29440;48.208;11.162;2023-03-31T07:38:52;9.20;99.90
43810;DHT22;29440;48.208;11.162;2023-03-31T07:41:19;9.30;99.90
43810;DHT22;29440;48.208;11.162;2023-03-31T07:43:47;9.30;99.90
43810;DHT22;29440;48.208;11.162;2023-03-31T07:46:25;9.30;99.90
43810;DHT22;29440;48.208;11.162;2023-03-31T07:48:52;9.40;99.90
43810;DHT22;29440;48.208;11.162;2023-03-31T07:51:20;9.40;99.90
43810;DHT22;29440;48.208;11.162;2023-03-31T07:53:46;9.40;99.90
43810;DHT22;29440;48.208;11.162;2023-03-31T07:56:14;9.40;99.90
43810;DHT22;29440;48.208;11.162;2023-03-31T07:58:41;9.50;99.90
43810;DHT22;29440;48.208;11.162;2023-03-31T08:01:07;9.60;99.90
43810;DHT22;29440;48.208;11.162;2023-03-31T08:03:33;9.70;99.90
43810;DHT22;29440;48.208;11.162;2023-03-31T08:05:59;10.00;99.90
43810;DHT22;29440;48.208;11.162;2023-03-31T08:08:24;10.30;99.90
43810;DHT22;29440;48.208;11.162;2023-03-31T08:10:51;10.40;99.90
43810;DHT22;29440;48.208;11.162;2023-03-31T08:13:17;10.40;99.90
43810;DHT22;29440;48.208;11.162;2023-03-31T08:15:42;10.40;99.90
43810;DHT22;29440;48.208;11.162;2023-03-31T08:18:08;10.30;99.90
43810;DHT22;29440;48.208;11.162;2023-03-31T08:20:34;10.40;99.90
43810;DHT22;29440;48.208;11.162;2023-03-31T08:23:00;10.40;99.90
43810;DHT22;29440;48.208;11.162;2023-03-31T08:25:26;10.40;99.90
43810;DHT22;29440;48.208;11.162;2023-03-31T08:27:51;10.50;99.90
43810;DHT22;29440;48.208;11.162;2023-03-31T08:30:18;10.50;99.90
43810;DHT22;29440;48.208;11.162;2023-03-31T08:32:45;10.30;99.90
43810;DHT22;29440;48.208;11.162;2023-03-31T08:35:11;10.30;99.90
43810;DHT22;29440;48.208;11.162;2023-03-31T08:37:37;10.30;99.90
43810;DHT22;29440;48.208;11.162;2023-03-31T08:40:04;10.50;99.90
43810;DHT22;29440;48.208;11.162;2023-03-31T08:42:50;10.60;99.90
43810;DHT22;29440;48.208;11.162;2023-03-31T08:45:30;10.70;99.90
43810;DHT22;29440;48.208;11.162;2023-03-31T08:48:13;10.90;99.90
43810;DHT22;29440;48.208;11.162;2023-03-31T08:50:47;11.00;99.90
43810;DHT22;29440;48.208;11.162;2023-03-31T08:53:20;11.10;99.90
43810;DHT22;29440;48.208;11.162;2023-03-31T08:55:50;11.20;99.90
43810;DHT22;29440;48.208;11.162;2023-03-31T09:03:31;11.40;99.90
43810;DHT22;29440;48.208;11.162;2023-03-31T09:06:08;11.40;99.90
43810;DHT22;29440;48.208;11.162;2023-03-31T09:08:40;11.40;99.90
43810;DHT22;29440;48.208;11.162;2023-03-31T09:11:10;11.40;99.90
43810;DHT22;29440;48.208;11.162;2023-03-31T09:19:36;11.70;99.90
43810;DHT22;29440;48.208;11.162;2023-03-31T09:22:07;12.00;99.90
43810;DHT22;29440;48.208;11.162;2023-03-31T09:24:48;12.30;99.90
43810;DHT22;29440;48.208;11.162;2023-03-31T09:27:15;12.60;99.90
43810;DHT22;29440;48.208;11.162;2023-03-31T09:29:45;12.80;99.90
43810;DHT22;29440;48.208;11.162;2023-03-31T09:34:46;13.00;99.90
43810;DHT22;29440;48.208;11.162;2023-03-31T09:37:14;13.30;99.90
43810;DHT22;29440;48.208;11.162;2023-03-31T09:39:40;13.20;99.90
43810;DHT22;29440;48.208;11.162;2023-03-31T09:42:08;13.40;99.90
43810;DHT22;29440;48.208;11.162;2023-03-31T09:44:39;13.40;99.90
43810;DHT22;29440;48.208;11.162;2023-03-31T09:47:38;13.50;99.90
43810;DHT22;29440;48.208;11.162;2023-03-31T09:50:07;13.50;99.90
43810;DHT22;29440;48.208;11.162;2023-03-31T09:52:43;13.50;99.90
43810;DHT22;29440;48.208;11.162;2023-03-31T09:55:22;13.60;99.90
43810;DHT22;29440;48.208;11.162;2023-03-31T09:57:48;13.70;99.90
43810;DHT22;29440;48.208;11.162;2023-03-31T10:00:18;13.80;99.90
43810;DHT22;29440;48.208;11.162;2023-03-31T10:02:54;13.90;99.90
43810;DHT22;29440;48.208;11.162;2023-03-31T10:05:25;14.10;99.90
43810;DHT22;29440;48.208;11.162;2023-03-31T10:07:53;14.20;99.90
43810;DHT22;29440;48.208;11.162;2023-03-31T10:10:33;14.30;99.90
43810;DHT22;29440;48.208;11.162;2023-03-31T10:13:06;14.50;99.90
43810;DHT22;29440;48.208;11.162;2023-03-31T10:15:36;14.60;99.90
43810;DHT22;29440;48.208;11.162;2023-03-31T10:18:02;14.80;99.90
43810;DHT22;29440;48.208;11.162;2023-03-31T10:20:37;14.90;99.90
43810;DHT22;29440;48.208;11.162;2023-03-31T10:23:14;15.10;99.90
43810;DHT22;29440;48.208;11.162;2023-03-31T10:25:40;15.30;99.90
43810;DHT22;29440;48.208;11.162;2023-03-31T10:28:11;15.40;99.90
43810;DHT22;29440;48.208;11.162;2023-03-31T10:30:38;15.50;99.90
43810;DHT22;29440;48.208;11.162;2023-03-31T10:33:21;15.60;99.90
43810;DHT22;29440;48.208;11.162;2023-03-31T10:35:48;15.70;99.90
43810;DHT22;29440;48.208;11.162;2023-03-31T10:38:25;15.70;99.90
43810;DHT22;29440;48.208;11.162;2023-03-31T10:40:54;15.90;99.90
43810;DHT22;29440;48.208;11.162;2023-03-31T10:43:28;15.80;99.90
43810;DHT22;29440;48.208;11.162;2023-03-31T10:45:56;15.80;99.90
43810;DHT22;29440;48.208;11.162;2023-03-31T10:48:32;15.80;99.90
43810;DHT22;29440;48.208;11.162;2023-03-31T10:51:20;15.70;99.90
43810;DHT22;29440;48.208;11.162;2023-03-31T10:53:47;15.60;99.90
43810;DHT22;29440;48.208;11.162;2023-03-31T11:07:17;15.10;99.90
43810;DHT22;29440;48.208;11.162;2023-03-31T11:10:07;14.90;99.90
43810;DHT22;29440;48.208;11.162;2023-03-31T11:12:46;14.50;99.90
43810;DHT22;29440;48.208;11.162;2023-03-31T11:15:37;14.00;99.90
43810;DHT22;29440;48.208;11.162;2023-03-31T11:18:14;13.60;99.90
43810;DHT22;29440;48.208;11.162;2023-03-31T11:23:41;13.00;99.90
43810;DHT22;29440;48.208;11.162;2023-03-31T11:28:52;12.90;99.90
43810;DHT22;29440;48.208;11.162;2023-03-31T11:34:36;12.90;99.90
43810;DHT22;29440;48.208;11.162;2023-03-31T11:40:01;12.80;99.90
43810;DHT22;29440;48.208;11.162;2023-03-31T11:42:39;12.80;99.90
43810;DHT22;29440;48.208;11.162;2023-03-31T11:45:27;12.80;99.90
43810;DHT22;29440;48.208;11.162;2023-03-31T11:47:58;12.90;99.90
43810;DHT22;29440;48.208;11.162;2023-03-31T11:50:40;13.00;99.90
43810;DHT22;29440;48.208;11.162;2023-03-31T11:53:17;13.20;99.90
43810;DHT22;29440;48.208;11.162;2023-03-31T11:55:45;13.40;99.90
43810;DHT22;29440;48.208;11.162;2023-03-31T11:58:16;13.50;99.90
43810;DHT22;29440;48.208;11.162;2023-03-31T12:03:52;13.70;99.90
43810;DHT22;29440;48.208;11.162;2023-03-31T12:06:21;13.70;99.90
43810;DHT22;29440;48.208;11.162;2023-03-31T12:11:37;13.70;99.90
43810;DHT22;29440;48.208;11.162;2023-03-31T12:14:12;13.90;99.90
43810;DHT22;29440;48.208;11.162;2023-03-31T12:16:41;14.20;99.90
43810;DHT22;29440;48.208;11.162;2023-03-31T12:19:35;14.20;99.90
43810;DHT22;29440;48.208;11.162;2023-03-31T12:22:13;14.20;99.90
43810;DHT22;29440;48.208;11.162;2023-03-31T12:24:40;14.30;99.90
43810;DHT22;29440;48.208;11.162;2023-03-31T12:27:25;14.50;99.90
43810;DHT22;29440;48.208;11.162;2023-03-31T12:30:05;14.30;99.90
43810;DHT22;29440;48.208;11.162;2023-03-31T12:32:36;14.40;99.90
43810;DHT22;29440;48.208;11.162;2023-03-31T12:35:04;14.50;99.90
43810;DHT22;29440;48.208;11.162;2023-03-31T12:40:07;14.40;99.90
43810;DHT22;29440;48.208;11.162;2023-03-31T12:45:35;14.40;99.90
43810;DHT22;29440;48.208;11.162;2023-03-31T12:51:32;14.20;99.90
43810;DHT22;29440;48.208;11.162;2023-03-31T12:54:08;14.00;99.90
43810;DHT22;29440;48.208;11.162;2023-03-31T12:57:11;13.90;99.90
43810;DHT22;29440;48.208;11.162;2023-03-31T12:59:43;13.80;99.90
43810;DHT22;29440;48.208;11.162;2023-03-31T13:04:41;13.50;99.90
43810;DHT22;29440;48.208;11.162;2023-03-31T13:09:47;13.20;99.90
43810;DHT22;29440;48.208;11.162;2023-03-31T13:12:19;13.00;99.90
43810;DHT22;29440;48.208;11.162;2023-03-31T13:14:48;12.80;99.90
43810;DHT22;29440;48.208;11.162;2023-03-31T13:17:35;12.70;99.90
43810;DHT22;29440;48.208;11.162;2023-03-31T13:20:32;12.70;99.90
43810;DHT22;29440;48.208;11.162;2023-03-31T13:23:16;12.70;99.90
43810;DHT22;29440;48.208;11.162;2023-03-31T13:25:46;12.70;99.90
43810;DHT22;29440;48.208;11.162;2023-03-31T13:30:55;13.20;99.90
43810;DHT22;29440;48.208;11.162;2023-03-31T13:41:54;13.00;99.90
43810;DHT22;29440;48.208;11.162;2023-03-31T13:47:50;12.70;99.90
43810;DHT22;29440;48.208;11.162;2023-03-31T13:50:36;12.60;99.90
43810;DHT22;29440;48.208;11.162;2023-03-31T14:09:35;12.50;99.90
43810;DHT22;29440;48.208;11.162;2023-03-31T14:12:36;12.50;99.90
43810;DHT22;29440;48.208;11.162;2023-03-31T14:15:03;12.50;99.90
43810;DHT22;29440;48.208;11.162;2023-03-31T14:17:39;12.50;99.90
43810;DHT22;29440;48.208;11.162;2023-03-31T14:20:12;12.50;99.90
43810;DHT22;29440;48.208;11.162;2023-03-31T14:23:16;12.50;99.90
43810;DHT22;29440;48.208;11.162;2023-03-31T14:26:08;12.40;99.90
43810;DHT22;29440;48.208;11.162;2023-03-31T14:31:43;12.10;99.90
43810;DHT22;29440;48.208;11.162;2023-03-31T14:34:44;11.80;99.90
43810;DHT22;29440;48.208;11.162;2023-03-31T14:37:14;11.50;99.90
43810;DHT22;29440;48.208;11.162;2023-03-31T14:39:51;11.20;99.90
43810;DHT22;29440;48.208;11.162;2023-03-31T14:42:21;10.80;99.90
43810;DHT22;29440;48.208;11.162;2023-03-31T14:44:54;10.70;99.90
43810;DHT22;29440;48.208;11.162;2023-03-31T14:47:22;10.60;99.90
43810;DHT22;29440;48.208;11.162;2023-03-31T14:49:59;10.30;99.90
43810;DHT22;29440;48.208;11.162;2023-03-31T14:52:29;10.20;99.90
43810;DHT22;29440;48.208;11.162;2023-03-31T14:54:57;10.30;99.90
43810;DHT22;29440;48.208;11.162;2023-03-31T14:57:31;10.30;99.90
43810;DHT22;29440;48.208;11.162;2023-03-31T14:59:58;10.40;99.90
43810;DHT22;29440;48.208;11.162;2023-03-31T15:02:32;10.50;99.90
43810;DHT22;29440;48.208;11.162;2023-03-31T15:05:01;10.70;99.90
43810;DHT22;29440;48.208;11.162;2023-03-31T15:07:27;10.80;99.90
43810;DHT22;29440;48.208;11.162;2023-03-31T15:09:53;11.00;99.90
43810;DHT22;29440;48.208;11.162;2023-03-31T15:12:20;11.10;99.90
43810;DHT22;29440;48.208;11.162;2023-03-31T15:14:51;11.20;99.90
43810;DHT22;29440;48.208;11.162;2023-03-31T15:17:23;11.40;99.90
43810;DHT22;29440;48.208;11.162;2023-03-31T15:19:56;11.50;99.90
43810;DHT22;29440;48.208;11.162;2023-03-31T15:22:24;11.60;99.90
43810;DHT22;29440;48.208;11.162;2023-03-31T15:24:51;11.70;99.90
43810;DHT22;29440;48.208;11.162;2023-03-31T15:29:46;11.70;99.90
43810;DHT22;29440;48.208;11.162;2023-03-31T15:34:50;11.70;99.90
43810;DHT22;29440;48.208;11.162;2023-03-31T15:37:29;11.70;99.90
43810;DHT22;29440;48.208;11.162;2023-03-31T15:39:59;11.70;99.90
43810;DHT22;29440;48.208;11.162;2023-03-31T15:42:27;11.60;99.90
43810;DHT22;29440;48.208;11.162;2023-03-31T15:44:56;11.70;99.90
43810;DHT22;29440;48.208;11.162;2023-03-31T15:47:26;11.70;99.90
43810;DHT22;29440;48.208;11.162;2023-03-31T15:50:23;11.60;99.90
43810;DHT22;29440;48.208;11.162;2023-03-31T15:52:52;11.70;99.90
43810;DHT22;29440;48.208;11.162;2023-03-31T15:55:29;11.70;99.90
43810;DHT22;29440;48.208;11.162;2023-03-31T15:57:57;11.60;99.90
43810;DHT22;29440;48.208;11.162;2023-03-31T16:03:00;11.70;99.90
43810;DHT22;29440;48.208;11.162;2023-03-31T16:05:40;11.70;99.90
43810;DHT22;29440;48.208;11.162;2023-03-31T16:08:16;11.70;99.90
43810;DHT22;29440;48.208;11.162;2023-03-31T16:10:45;11.70;99.90
43810;DHT22;29440;48.208;11.162;2023-03-31T16:13:17;11.80;99.90
43810;DHT22;29440;48.208;11.162;2023-03-31T16:15:48;11.80;99.90
43810;DHT22;29440;48.208;11.162;2023-03-31T16:18:22;11.80;99.90
43810;DHT22;29440;48.208;11.162;2023-03-31T16:20:53;11.70;99.90
43810;DHT22;29440;48.208;11.162;2023-03-31T16:23:26;11.70;99.90
43810;DHT22;29440;48.208;11.162;2023-03-31T16:25:53;11.60;99.90
43810;DHT22;29440;48.208;11.162;2023-03-31T16:28:31;11.60;99.90
43810;DHT22;29440;48.208;11.162;2023-03-31T16:30:57;11.50;99.90
43810;DHT22;29440;48.208;11.162;2023-03-31T16:33:28;11.50;99.90
43810;DHT22;29440;48.208;11.162;2023-03-31T16:35:55;11.40;99.90
43810;DHT22;29440;48.208;11.162;2023-03-31T16:38:22;11.30;99.90
43810;DHT22;29440;48.208;11.162;2023-03-31T16:40:50;11.10;99.90
43810;DHT22;29440;48.208;11.162;2023-03-31T16:45:48;10.50;99.90
43810;DHT22;29440;48.208;11.162;2023-03-31T16:48:15;10.20;99.90
43810;DHT22;29440;48.208;11.162;2023-03-31T16:50:42;10.00;99.90
43810;DHT22;29440;48.208;11.162;2023-03-31T16:53:07;9.80;99.90
43810;DHT22;29440;48.208;11.162;2023-03-31T16:55:33;9.60;99.90
43810;DHT22;29440;48.208;11.162;2023-03-31T16:57:59;9.50;99.90
43810;DHT22;29440;48.208;11.162;2023-03-31T17:00:31;9.40;99.90
43810;DHT22;29440;48.208;11.162;2023-03-31T17:02:59;9.30;99.90
43810;DHT22;29440;48.208;11.162;2023-03-31T17:05:26;9.20;99.90
43810;DHT22;29440;48.208;11.162;2023-03-31T17:07:53;9.10;99.90
43810;DHT22;29440;48.208;11.162;2023-03-31T17:10:19;9.10;99.90
43810;DHT22;29440;48.208;11.162;2023-03-31T17:12:45;9.00;99.90
43810;DHT22;29440;48.208;11.162;2023-03-31T17:15:12;8.90;99.90
43810;DHT22;29440;48.208;11.162;2023-03-31T17:17:37;8.90;99.90
43810;DHT22;29440;48.208;11.162;2023-03-31T17:20:06;8.80;99.90
43810;DHT22;29440;48.208;11.162;2023-03-31T17:22:33;8.70;99.90
43810;DHT22;29440;48.208;11.162;2023-03-31T17:24:59;8.60;99.90
43810;DHT22;29440;48.208;11.162;2023-03-31T17:27:26;8.50;99.90
43810;DHT22;29440;48.208;11.162;2023-03-31T17:29:53;8.60;99.90
43810;DHT22;29440;48.208;11.162;2023-03-31T17:32:19;8.50;99.90
43810;DHT22;29440;48.208;11.162;2023-03-31T17:34:45;8.50;99.90
43810;DHT22;29440;48.208;11.162;2023-03-31T17:37:16;8.40;99.90
43810;DHT22;29440;48.208;11.162;2023-03-31T17:39:42;8.50;99.90
43810;DHT22;29440;48.208;11.162;2023-03-31T17:42:09;8.40;99.90
43810;DHT22;29440;48.208;11.162;2023-03-31T17:44:36;8.30;99.90
43810;DHT22;29440;48.208;11.162;2023-03-31T17:47:01;8.30;99.90
43810;DHT22;29440;48.208;11.162;2023-03-31T17:49:27;8.30;99.90
43810;DHT22;29440;48.208;11.162;2023-03-31T17:51:53;8.30;99.90